Hourly Reports from 6 nearest airdromes.

 

EGHI - Southampton Wx C, United Kingdom
Distance from station: NNW 4mi, 7km
Updated: Wed, 12-May-2021 13:50 BST
Partly Cloudy
Partly Cloudy
 Wind from S
Wind: S 9 mph , 15 km/h
Temperature: 15°C
Dew Point: 6°C
Humidity: 55%
Barometer: 1008 hPa
Clouds: Partly Cloudy
Visibility: 6 miles , 10 km
Cloud details: Partly Cloudy 1067 m
2021/05/12 12:50 EGHI 121250Z 18008KT 080V240 9999 SCT035 15/06 Q1008
EGVP - Middle Wallop, United Kingdom
Distance from station: NW 20mi, 32km
Updated: Wed, 12-May-2021 13:50 BST
Mostly Cloudy
Mostly Cloudy
 Wind from S
Wind: S 9 mph , 15 km/h
Temperature: 14°C
Dew Point: 4°C
Humidity: 51%
Barometer: 1008 hPa
Clouds: Mostly Cloudy
Visibility: 6 miles , 10 km
Cloud details: Mostly Cloudy 1189 m
Mostly Cloudy 1829 m
2021/05/12 12:50 EGVP 121250Z 19008KT 9999 BKN039 BKN060 14/04 Q1008 NOSIG RMK BLU BLU
 
EGHH - Bournemouth Airp, United Kingdom
Distance from station: WSW 25mi, 40km
Updated: Wed, 12-May-2021 13:50 BST
Partly Cloudy
Partly Cloudy
 Wind from SSE
Wind: SSE 10 mph , 17 km/h
Temperature: 14°C
Dew Point: 7°C
Humidity: 63%
Barometer: 1008 hPa
Clouds: Partly Cloudy
Visibility: 6 miles , 10 km
Cloud details: Partly Cloudy 671 m
2021/05/12 12:50 EGHH 121250Z 16009KT 140V210 9999 SCT022 14/07 Q1008
EGDM - Boscombe Down, United Kingdom
Distance from station: NW 27mi, 43km
Updated: Wed, 12-May-2021 13:50 BST
Mostly Cloudy
Mostly Cloudy
 Wind from S
Wind: S 8 mph , 13 km/h
Temperature: 14°C
Dew Point: 6°C
Humidity: 59%
Barometer: 1007 hPa
Clouds: Mostly Cloudy
Visibility: 6 miles , 10 km
Cloud details: Few Clouds 1189 m
Mostly Cloudy 1829 m
2021/05/12 12:50 EGDM 121250Z AUTO 19007KT 9999 FEW039/// BKN060/// 14/06 Q1007
 
EGVO - Odiham Raf, United Kingdom
Distance from station: NNE 28mi, 44km
Updated: Wed, 12-May-2021 13:50 BST
Partly Cloudy
Partly Cloudy
 Wind from S
Wind: S 13 mph , 20 km/h
Temperature: 14°C
Dew Point: 6°C
Humidity: 59%
Barometer: 1008 hPa
Clouds: Partly Cloudy
Visibility: 6 miles , 10 km
Cloud details: Partly Cloudy 1036 m
2021/05/12 12:50 EGVO 121250Z 18011KT 9999 SCT034 14/06 Q1008 NOSIG RMK BLU BLU
EGLF - Farnborough, United Kingdom
Distance from station: NE 35mi, 57km
Updated: Wed, 12-May-2021 13:50 BST
Few Clouds
Few Clouds
 Wind from SSW
Wind: SSW 10 mph , 17 km/h
Temperature: 16°C
Dew Point: 6°C
Humidity: 52%
Barometer: 1008 hPa
Clouds: Few Clouds
Visibility: 6 miles , 10 km
Cloud details: Few Clouds 1189 m
2021/05/12 12:50 EGLF 121250Z AUTO 20009KT 170V240 9999 FEW039/// 16/06 Q1008

Metar display script from Saratoga-Weather.org